Time;durP1;ratioP1;P1;durP2;ratioP2;P2;SDS_P1;SDS_P2;PMS_P1;PMS_P2;Temp;Humidity;BMP_temperature;BMP_pressure;BME280_temperature;BME280_humidity;BME280_pressure;Samples;Min_cycle;Max_cycle;Signal;HPM_P1;HPM_P2
2023/07/24 00:00:19;;;;;;;10.43;5.68;;;17.30;99.90;;;;;;5148977;27;20512;-79
2023/07/24 00:02:45;;;;;;;9.07;5.15;;;17.30;99.90;;;;;;5149628;27;20035;-79
2023/07/24 00:05:10;;;;;;;8.85;5.40;;;17.30;99.90;;;;;;5147767;27;20415;-78
2023/07/24 00:07:36;;;;;;;9.25;5.30;;;17.30;99.90;;;;;;5139644;27;20515;-79
2023/07/24 00:10:02;;;;;;;8.98;5.78;;;17.30;99.90;;;;;;5150087;27;20042;-79
2023/07/24 00:12:27;;;;;;;7.60;5.45;;;17.20;99.90;;;;;;5143673;27;20083;-78
2023/07/24 00:14:53;;;;;;;8.93;5.97;;;17.20;99.90;;;;;;5146196;27;20027;-79
2023/07/24 00:17:19;;;;;;;12.80;6.05;;;17.20;99.90;;;;;;5137839;27;20129;-78
2023/07/24 00:19:44;;;;;;;10.30;5.70;;;17.10;99.90;;;;;;5141549;27;20553;-78
2023/07/24 00:22:10;;;;;;;9.60;5.70;;;17.10;99.90;;;;;;5143187;27;20053;-78
2023/07/24 00:24:35;;;;;;;10.30;6.20;;;17.10;99.90;;;;;;5139457;27;20123;-79
2023/07/24 00:27:01;;;;;;;8.43;6.15;;;17.10;99.90;;;;;;5144954;27;20046;-78
2023/07/24 00:29:27;;;;;;;11.75;6.72;;;17.00;99.90;;;;;;5142281;27;20039;-79
2023/07/24 00:31:52;;;;;;;11.80;7.25;;;17.00;99.90;;;;;;5141887;27;20038;-79
2023/07/24 00:34:18;;;;;;;10.65;5.90;;;17.00;99.90;;;;;;5143393;27;20420;-79
2023/07/24 00:36:43;;;;;;;9.25;5.88;;;16.90;99.90;;;;;;5135898;27;20035;-79
2023/07/24 00:39:09;;;;;;;9.38;5.97;;;16.90;99.90;;;;;;5141888;27;20071;-79
2023/07/24 00:41:34;;;;;;;11.40;6.32;;;16.90;99.90;;;;;;5146631;27;20042;-79
2023/07/24 00:44:00;;;;;;;13.02;6.05;;;16.90;99.90;;;;;;5140160;27;20540;-78
2023/07/24 00:46:25;;;;;;;10.30;5.53;;;16.90;99.90;;;;;;5147568;27;20039;-78
2023/07/24 00:48:52;;;;;;;12.85;6.07;;;16.90;99.90;;;;;;5145496;27;20118;-78
2023/07/24 00:51:18;;;;;;;10.45;6.10;;;16.90;99.90;;;;;;5141567;27;20072;-79
2023/07/24 00:53:44;;;;;;;11.60;6.03;;;16.90;99.90;;;;;;5141017;27;20063;-78
2023/07/24 00:56:10;;;;;;;11.50;6.20;;;16.80;99.90;;;;;;5146861;27;20514;-79
2023/07/24 00:58:38;;;;;;;11.45;6.55;;;16.80;99.90;;;;;;5142638;27;20059;-78
2023/07/24 01:01:04;;;;;;;10.50;6.38;;;16.80;99.90;;;;;;5148675;27;20038;-79
2023/07/24 01:03:34;;;;;;;13.85;6.35;;;16.80;99.90;;;;;;5143108;27;20417;-80
2023/07/24 01:06:04;;;;;;;13.25;6.90;;;16.70;99.90;;;;;;5151374;27;20042;-80
2023/07/24 01:08:29;;;;;;;10.02;6.35;;;16.70;99.90;;;;;;5148197;27;20073;-80
2023/07/24 01:11:07;;;;;;;11.98;6.22;;;16.70;99.90;;;;;;5142397;27;20455;-80
2023/07/24 01:13:38;;;;;;;9.93;6.55;;;16.70;99.90;;;;;;5144437;27;20061;-79
2023/07/24 01:16:14;;;;;;;11.35;6.53;;;16.70;99.90;;;;;;5141930;27;20054;-79
2023/07/24 01:18:41;;;;;;;13.20;7.00;;;16.60;99.90;;;;;;5141755;27;20039;-79
2023/07/24 01:21:09;;;;;;;11.60;6.50;;;16.70;99.90;;;;;;5144713;27;20035;-79
2023/07/24 01:23:59;;;;;;;12.32;7.20;;;16.60;99.90;;;;;;5139335;27;20062;-79
2023/07/24 01:26:25;;;;;;;10.40;7.38;;;16.60;99.90;;;;;;5145554;27;20039;-78
2023/07/24 01:28:51;;;;;;;12.77;7.53;;;16.60;99.90;;;;;;5142137;27;20062;-79
2023/07/24 01:31:17;;;;;;;11.70;7.60;;;16.60;99.90;;;;;;5147835;27;20448;-79
2023/07/24 01:33:43;;;;;;;11.15;7.63;;;16.60;99.90;;;;;;5143435;27;20497;-78
2023/07/24 01:36:09;;;;;;;10.95;7.45;;;16.50;99.90;;;;;;5144100;27;20042;-79
2023/07/24 01:38:36;;;;;;;11.60;7.43;;;16.50;99.90;;;;;;5141026;27;20039;-79
2023/07/24 01:41:03;;;;;;;11.20;8.57;;;16.50;99.90;;;;;;5144742;27;20057;-79
2023/07/24 01:43:30;;;;;;;11.55;8.23;;;16.50;99.90;;;;;;5143823;27;20059;-79
2023/07/24 01:45:56;;;;;;;13.25;8.25;;;16.50;99.90;;;;;;5141584;27;20485;-79
2023/07/24 01:48:21;;;;;;;13.93;9.23;;;16.50;99.90;;;;;;5148595;27;20064;-79
2023/07/24 01:50:47;;;;;;;14.45;8.98;;;16.50;99.90;;;;;;5145602;27;20054;-79
2023/07/24 01:53:13;;;;;;;11.38;9.00;;;16.50;99.90;;;;;;5145692;27;20034;-78
2023/07/24 01:55:38;;;;;;;14.52;9.95;;;16.50;99.90;;;;;;5135729;27;20050;-80
2023/07/24 01:58:04;;;;;;;11.50;9.60;;;16.50;99.90;;;;;;5146111;27;20481;-78
2023/07/24 02:00:30;;;;;;;12.50;10.38;;;16.50;99.90;;;;;;5145513;27;20413;-78
2023/07/24 02:02:55;;;;;;;12.60;10.32;;;16.50;99.90;;;;;;5137508;27;20477;-79
2023/07/24 02:05:21;;;;;;;12.75;10.05;;;16.50;99.90;;;;;;5148215;27;20046;-79
2023/07/24 02:07:47;;;;;;;12.65;10.05;;;16.50;99.90;;;;;;5147341;27;20481;-79
2023/07/24 02:10:12;;;;;;;14.43;10.23;;;16.50;99.90;;;;;;5143462;27;20172;-79
2023/07/24 02:12:38;;;;;;;11.77;9.52;;;16.50;99.90;;;;;;5147929;27;20082;-79
2023/07/24 02:15:04;;;;;;;12.23;10.52;;;16.50;99.90;;;;;;5130222;27;20082;-78
2023/07/24 02:17:29;;;;;;;11.50;9.82;;;16.50;99.90;;;;;;5137610;27;20030;-79
2023/07/24 02:19:55;;;;;;;11.85;9.80;;;16.50;99.90;;;;;;5145058;27;20455;-79
2023/07/24 02:22:20;;;;;;;12.40;10.18;;;16.50;99.90;;;;;;5148237;27;20091;-79
2023/07/24 02:24:46;;;;;;;11.43;9.75;;;16.50;99.90;;;;;;5139123;27;20429;-78
2023/07/24 02:27:26;;;;;;;12.73;10.02;;;16.50;99.90;;;;;;5118083;27;20528;-79
2023/07/24 02:29:51;;;;;;;12.63;9.95;;;16.50;99.90;;;;;;5142094;27;20045;-79
2023/07/24 02:32:17;;;;;;;11.93;9.82;;;16.50;99.90;;;;;;5121639;27;20039;-79
2023/07/24 02:34:43;;;;;;;12.68;9.77;;;16.60;99.90;;;;;;5141980;27;20465;-79
2023/07/24 02:37:08;;;;;;;13.27;10.43;;;16.60;99.90;;;;;;5134456;27;20514;-79
2023/07/24 02:39:34;;;;;;;16.58;10.18;;;16.50;99.90;;;;;;5143381;27;20030;-79
2023/07/24 02:41:59;;;;;;;13.52;10.70;;;16.60;99.90;;;;;;5147820;27;20101;-79
2023/07/24 02:44:25;;;;;;;12.10;9.57;;;16.60;99.90;;;;;;5150303;27;20517;-79
2023/07/24 02:46:50;;;;;;;13.82;10.00;;;16.50;99.90;;;;;;5142834;27;20042;-78
2023/07/24 02:49:16;;;;;;;14.23;10.15;;;16.50;99.90;;;;;;5145491;27;20079;-79
2023/07/24 02:51:41;;;;;;;13.25;9.50;;;16.60;99.90;;;;;;5139395;27;20446;-79
2023/07/24 02:54:07;;;;;;;13.43;9.82;;;16.60;99.90;;;;;;5124644;27;20062;-79
2023/07/24 02:56:32;;;;;;;11.02;8.85;;;16.60;99.90;;;;;;5150052;27;20087;-79
2023/07/24 02:58:58;;;;;;;12.23;8.57;;;16.60;99.90;;;;;;5143584;27;20031;-79
2023/07/24 03:01:23;;;;;;;12.02;8.77;;;16.70;99.90;;;;;;5139729;27;20035;-78
2023/07/24 03:03:49;;;;;;;11.82;8.38;;;16.70;99.90;;;;;;5143892;27;20072;-79
2023/07/24 03:06:15;;;;;;;16.17;8.80;;;16.70;99.90;;;;;;5144696;27;20487;-78
2023/07/24 03:08:40;;;;;;;10.43;8.35;;;16.70;99.90;;;;;;5152936;27;20114;-79
2023/07/24 03:11:07;;;;;;;11.60;7.90;;;16.80;99.90;;;;;;5150576;27;20035;-78
2023/07/24 03:13:33;;;;;;;12.48;8.05;;;16.80;99.90;;;;;;5140784;27;20035;-79
2023/07/24 03:15:58;;;;;;;11.55;7.65;;;16.80;99.90;;;;;;5146258;27;20050;-78
2023/07/24 03:18:24;;;;;;;13.30;8.75;;;16.80;99.90;;;;;;5153464;27;20121;-79
2023/07/24 03:20:50;;;;;;;16.30;8.98;;;16.80;99.90;;;;;;5151766;27;20454;-79
2023/07/24 03:23:16;;;;;;;17.02;9.48;;;16.80;99.90;;;;;;5145285;27;20046;-78
2023/07/24 03:25:41;;;;;;;12.35;8.38;;;16.90;99.90;;;;;;5145171;27;20050;-79
2023/07/24 03:28:07;;;;;;;13.02;8.57;;;16.90;99.90;;;;;;5148120;27;20042;-79
2023/07/24 03:30:33;;;;;;;12.45;8.85;;;16.90;99.90;;;;;;5146279;27;20114;-79
2023/07/24 03:32:58;;;;;;;15.88;8.25;;;16.90;99.90;;;;;;5147956;27;20031;-79
2023/07/24 03:35:24;;;;;;;11.13;7.57;;;16.90;99.90;;;;;;5147201;27;20030;-78
2023/07/24 03:37:50;;;;;;;11.15;7.88;;;16.90;99.90;;;;;;5138135;27;20038;-78
2023/07/24 03:40:15;;;;;;;9.68;8.02;;;16.90;99.90;;;;;;5149172;27;20506;-78
2023/07/24 03:42:41;;;;;;;11.60;7.85;;;16.90;99.90;;;;;;5143630;27;21428;-78
2023/07/24 03:45:07;;;;;;;10.95;7.03;;;16.90;99.90;;;;;;5147257;27;20035;-79
2023/07/24 03:47:33;;;;;;;10.70;7.65;;;16.90;99.90;;;;;;5148681;27;20505;-78
2023/07/24 03:49:59;;;;;;;12.00;7.55;;;16.90;99.90;;;;;;5145325;27;20088;-78
2023/07/24 03:52:24;;;;;;;11.23;7.63;;;16.90;99.90;;;;;;5151090;27;21452;-78
2023/07/24 03:54:51;;;;;;;11.00;7.53;;;16.90;99.90;;;;;;5139144;27;20029;-78
2023/07/24 03:57:16;;;;;;;10.50;7.32;;;16.90;99.90;;;;;;5148857;27;20378;-78
2023/07/24 03:59:42;;;;;;;10.55;7.40;;;16.90;99.90;;;;;;5151511;27;20033;-78
2023/07/24 04:02:08;;;;;;;12.35;7.65;;;16.90;99.90;;;;;;5142915;27;20042;-79
2023/07/24 04:04:33;;;;;;;12.77;8.00;;;16.90;99.90;;;;;;5149109;27;20046;-79
2023/07/24 04:06:59;;;;;;;10.85;7.40;;;17.00;99.90;;;;;;5142582;27;20042;-79
2023/07/24 04:09:24;;;;;;;10.88;7.57;;;17.00;99.90;;;;;;5145915;27;20043;-79
2023/07/24 04:11:50;;;;;;;10.50;7.57;;;17.00;99.90;;;;;;5144983;27;20046;-78
2023/07/24 04:14:15;;;;;;;12.23;8.38;;;16.90;99.90;;;;;;5150388;27;20134;-79
2023/07/24 04:16:41;;;;;;;10.60;8.10;;;17.00;99.90;;;;;;5147222;27;20031;-78
2023/07/24 04:19:07;;;;;;;12.23;8.27;;;17.00;99.90;;;;;;5137350;27;20027;-78
2023/07/24 04:21:32;;;;;;;10.73;8.60;;;17.00;99.90;;;;;;5149230;27;20035;-80
2023/07/24 04:23:58;;;;;;;13.18;8.93;;;17.00;99.90;;;;;;5149432;27;20322;-78
2023/07/24 04:26:23;;;;;;;11.45;8.65;;;16.90;99.90;;;;;;5147834;27;20046;-79
2023/07/24 04:28:49;;;;;;;10.75;8.38;;;16.90;99.90;;;;;;5143403;27;20034;-79
2023/07/24 04:31:14;;;;;;;11.75;8.90;;;16.90;99.90;;;;;;5149402;27;20038;-79
2023/07/24 04:33:40;;;;;;;14.20;9.30;;;17.00;99.90;;;;;;5136538;27;20039;-78
2023/07/24 04:36:05;;;;;;;11.05;9.10;;;16.90;99.90;;;;;;5145578;27;20045;-78
2023/07/24 04:38:31;;;;;;;12.30;9.38;;;16.90;99.90;;;;;;5142907;27;20035;-78
2023/07/24 04:40:56;;;;;;;12.10;8.95;;;17.00;99.90;;;;;;5145991;27;20432;-78
2023/07/24 04:43:22;;;;;;;9.98;8.13;;;16.90;99.90;;;;;;5141200;27;20079;-79
2023/07/24 04:45:47;;;;;;;11.48;8.80;;;17.00;99.90;;;;;;5147054;27;20031;-79
2023/07/24 04:48:13;;;;;;;10.00;8.43;;;17.00;99.90;;;;;;5142408;27;20043;-78
2023/07/24 04:50:38;;;;;;;12.68;9.10;;;17.00;99.90;;;;;;5144599;27;20118;-78
2023/07/24 04:53:04;;;;;;;14.48;9.65;;;17.00;99.90;;;;;;5151518;27;20498;-79
2023/07/24 04:55:30;;;;;;;11.23;8.90;;;17.00;99.90;;;;;;5149713;27;20458;-78
2023/07/24 04:57:55;;;;;;;11.15;9.00;;;17.00;99.90;;;;;;5121308;27;20521;-78
2023/07/24 05:00:21;;;;;;;11.80;9.18;;;17.00;99.90;;;;;;5139268;27;20031;-78
2023/07/24 05:02:46;;;;;;;11.05;8.13;;;17.10;99.90;;;;;;5146841;27;20039;-78
2023/07/24 05:05:12;;;;;;;11.10;9.43;;;17.10;99.90;;;;;;5143945;27;20122;-78
2023/07/24 05:07:37;;;;;;;11.95;9.00;;;17.10;99.90;;;;;;5137479;27;20618;-78
2023/07/24 05:10:03;;;;;;;12.63;9.20;;;17.10;99.90;;;;;;5150808;27;20121;-78
2023/07/24 05:12:28;;;;;;;11.57;9.50;;;17.10;99.90;;;;;;5132614;27;20041;-78
2023/07/24 05:14:54;;;;;;;11.00;9.00;;;17.10;99.90;;;;;;5141390;27;20042;-79
2023/07/24 05:17:19;;;;;;;12.30;10.05;;;17.10;99.90;;;;;;5140579;27;20039;-78
2023/07/24 05:19:45;;;;;;;12.43;9.38;;;17.20;99.90;;;;;;5145317;27;20054;-78
2023/07/24 05:22:10;;;;;;;9.95;8.85;;;17.20;99.90;;;;;;5135196;27;20047;-77
2023/07/24 05:24:39;;;;;;;10.85;9.02;;;17.20;99.90;;;;;;5144040;27;20042;-78
2023/07/24 05:27:05;;;;;;;10.77;8.98;;;17.30;99.90;;;;;;5127496;27;20058;-78
2023/07/24 05:29:31;;;;;;;10.77;8.80;;;17.20;99.90;;;;;;5144329;27;20031;-78
2023/07/24 05:31:58;;;;;;;10.00;8.38;;;17.40;99.90;;;;;;5142105;27;20041;-78
2023/07/24 05:34:24;;;;;;;10.23;8.75;;;17.40;99.90;;;;;;5125237;27;20055;-78
2023/07/24 05:36:50;;;;;;;11.65;8.45;;;17.40;99.90;;;;;;5140834;27;20043;-78
2023/07/24 05:39:15;;;;;;;9.82;8.77;;;17.40;99.90;;;;;;5143353;27;20119;-78
2023/07/24 05:41:41;;;;;;;12.38;8.90;;;17.50;99.90;;;;;;5148987;27;20121;-78
2023/07/24 05:44:06;;;;;;;12.80;8.88;;;18.20;99.90;;;;;;5145996;27;20122;-78
2023/07/24 05:46:32;;;;;;;12.23;8.57;;;17.50;99.90;;;;;;5142160;27;20122;-78
2023/07/24 05:48:57;;;;;;;12.93;9.23;;;17.50;99.90;;;;;;5146302;27;20035;-78
2023/07/24 05:51:23;;;;;;;10.50;9.10;;;17.50;99.90;;;;;;5142403;27;20043;-78
2023/07/24 05:53:49;;;;;;;13.82;9.18;;;17.50;99.90;;;;;;5142038;27;20041;-78
2023/07/24 05:56:14;;;;;;;11.88;9.07;;;17.50;99.90;;;;;;5146233;27;20066;-79
2023/07/24 05:58:40;;;;;;;10.00;8.23;;;17.50;99.90;;;;;;5148675;27;20493;-78
2023/07/24 06:01:08;;;;;;;12.70;9.40;;;17.50;99.90;;;;;;5138183;27;20055;-78
2023/07/24 06:03:33;;;;;;;11.43;8.95;;;17.50;99.90;;;;;;5123799;27;20041;-78
2023/07/24 06:05:59;;;;;;;11.57;9.27;;;17.40;99.90;;;;;;5147181;27;20030;-78
2023/07/24 06:08:24;;;;;;;12.48;8.57;;;17.40;99.90;;;;;;5147811;27;20091;-78
2023/07/24 06:10:50;;;;;;;11.48;8.55;;;17.40;99.90;;;;;;5142377;27;20167;-78
2023/07/24 06:13:17;;;;;;;11.98;9.05;;;17.40;99.90;;;;;;5140613;27;20191;-78
2023/07/24 06:15:42;;;;;;;13.45;8.93;;;17.50;99.90;;;;;;5125302;27;20022;-79
2023/07/24 06:18:09;;;;;;;11.82;9.43;;;17.50;99.90;;;;;;5135526;27;20027;-79
2023/07/24 06:20:34;;;;;;;13.55;9.07;;;17.60;99.90;;;;;;5144922;27;20094;-78
2023/07/24 06:23:00;;;;;;;12.73;9.25;;;17.80;99.90;;;;;;5138839;27;20399;-77
2023/07/24 06:25:25;;;;;;;13.25;8.90;;;17.90;99.90;;;;;;5140957;27;20074;-78
2023/07/24 06:27:51;;;;;;;10.57;9.05;;;18.00;99.90;;;;;;5137204;27;20033;-80
2023/07/24 06:30:16;;;;;;;12.73;9.20;;;18.00;99.90;;;;;;5123883;27;20129;-78
2023/07/24 06:32:42;;;;;;;12.30;8.55;;;18.00;99.90;;;;;;5140253;27;20038;-78
2023/07/24 06:35:08;;;;;;;14.77;9.70;;;18.00;99.90;;;;;;5140048;27;20039;-78
2023/07/24 06:37:34;;;;;;;13.18;8.90;;;18.10;99.90;;;;;;5143373;27;20038;-78
2023/07/24 06:39:59;;;;;;;11.27;8.65;;;18.10;99.90;;;;;;5140136;27;20121;-78
2023/07/24 06:42:25;;;;;;;12.68;8.70;;;18.10;99.90;;;;;;5151087;27;20073;-78
2023/07/24 06:44:50;;;;;;;14.10;9.27;;;18.10;99.90;;;;;;5145102;27;20561;-78
2023/07/24 06:47:16;;;;;;;13.57;8.82;;;18.10;99.90;;;;;;5142568;27;20041;-78
2023/07/24 06:49:41;;;;;;;15.23;8.88;;;18.20;99.90;;;;;;5147210;27;20038;-78
2023/07/24 06:52:07;;;;;;;11.27;8.80;;;18.20;99.90;;;;;;5152946;27;20034;-78
2023/07/24 06:54:32;;;;;;;10.65;8.63;;;18.20;99.90;;;;;;5145579;27;20085;-78
2023/07/24 06:56:58;;;;;;;11.35;8.52;;;18.20;99.90;;;;;;5141857;27;20030;-78
2023/07/24 06:59:24;;;;;;;11.85;9.18;;;18.30;99.90;;;;;;5139255;27;20050;-78
2023/07/24 07:01:49;;;;;;;14.45;8.73;;;18.30;99.90;;;;;;5142293;27;20053;-78
2023/07/24 07:04:15;;;;;;;10.18;8.30;;;18.40;99.90;;;;;;5135357;27;20045;-78
2023/07/24 07:06:41;;;;;;;11.80;8.13;;;18.50;99.90;;;;;;5147193;27;20039;-78
2023/07/24 07:09:06;;;;;;;15.63;8.75;;;18.50;99.90;;;;;;5151380;27;20310;-78
2023/07/24 07:11:32;;;;;;;12.00;8.60;;;18.50;99.90;;;;;;5138819;27;20027;-78
2023/07/24 07:13:57;;;;;;;11.13;8.50;;;18.50;99.90;;;;;;5140195;27;20513;-78
2023/07/24 07:16:23;;;;;;;15.88;9.13;;;18.50;99.90;;;;;;5146793;27;20031;-78
2023/07/24 07:18:49;;;;;;;13.60;9.25;;;18.60;99.90;;;;;;5146073;27;20041;-78
2023/07/24 07:21:14;;;;;;;14.93;8.65;;;18.60;99.90;;;;;;5151548;27;20122;-78
2023/07/24 07:23:40;;;;;;;14.25;8.68;;;18.60;99.90;;;;;;5151043;27;20030;-78
2023/07/24 07:26:05;;;;;;;12.55;8.50;;;18.70;99.90;;;;;;5146493;27;20049;-78
2023/07/24 07:28:31;;;;;;;11.57;8.48;;;18.70;99.90;;;;;;5147988;27;20052;-78
2023/07/24 07:30:56;;;;;;;10.73;8.07;;;18.80;99.90;;;;;;5143173;27;20039;-78
2023/07/24 07:33:22;;;;;;;11.95;8.10;;;18.80;99.90;;;;;;5133699;27;20039;-77
2023/07/24 07:35:48;;;;;;;13.95;8.80;;;18.80;99.90;;;;;;5143023;27;20031;-77
2023/07/24 07:38:13;;;;;;;13.55;8.40;;;18.90;99.90;;;;;;5154377;27;20504;-78
2023/07/24 07:40:39;;;;;;;15.93;8.60;;;18.90;99.90;;;;;;5146798;27;20119;-77
2023/07/24 07:43:05;;;;;;;15.38;8.38;;;19.00;99.90;;;;;;5146058;27;20042;-78
2023/07/24 07:45:30;;;;;;;12.65;8.13;;;19.00;99.90;;;;;;5142762;27;20088;-77
2023/07/24 07:47:56;;;;;;;15.43;8.73;;;19.10;99.90;;;;;;5147462;27;20110;-77
2023/07/24 07:50:21;;;;;;;12.43;8.02;;;19.20;99.90;;;;;;5143514;27;20043;-78
2023/07/24 07:52:52;;;;;;;11.60;7.45;;;19.20;99.90;;;;;;5153904;27;20037;-79
2023/07/24 07:55:20;;;;;;;12.82;7.65;;;19.30;99.90;;;;;;5145927;27;20086;-78
2023/07/24 07:57:46;;;;;;;12.98;7.95;;;19.30;99.90;;;;;;5146360;27;20049;-78
2023/07/24 08:00:12;;;;;;;15.02;8.30;;;19.30;99.90;;;;;;5147823;27;20035;-78
2023/07/24 08:02:41;;;;;;;14.93;8.20;;;19.40;99.90;;;;;;5120701;27;20072;-78
2023/07/24 08:05:08;;;;;;;13.65;7.95;;;19.40;99.90;;;;;;5121441;27;20168;-78
2023/07/24 08:07:33;;;;;;;15.88;8.05;;;19.50;99.90;;;;;;5140148;27;20039;-78
2023/07/24 08:09:59;;;;;;;12.00;8.20;;;19.60;99.90;;;;;;5153680;27;20058;-78
2023/07/24 08:12:25;;;;;;;13.75;8.02;;;19.60;99.90;;;;;;5140748;27;20031;-78
2023/07/24 08:14:50;;;;;;;12.00;7.95;;;19.70;99.90;;;;;;5121143;27;20128;-79
2023/07/24 08:17:16;;;;;;;13.13;8.50;;;19.80;99.90;;;;;;5147389;27;20027;-78
2023/07/24 08:19:41;;;;;;;13.32;7.72;;;19.80;99.90;;;;;;5151040;27;20076;-78
2023/07/24 08:22:07;;;;;;;14.57;8.13;;;19.90;99.90;;;;;;5158692;27;20060;-78
2023/07/24 08:24:35;;;;;;;14.32;7.82;;;19.90;99.90;;;;;;5144875;27;20394;-78
2023/07/24 08:27:01;;;;;;;14.70;8.15;;;19.90;99.90;;;;;;5146001;27;20099;-78
2023/07/24 08:29:27;;;;;;;13.52;8.45;;;20.10;99.90;;;;;;5135197;27;20043;-79
2023/07/24 08:31:53;;;;;;;11.65;8.15;;;19.90;99.90;;;;;;5135469;27;20390;-78
2023/07/24 08:34:18;;;;;;;14.68;7.95;;;19.90;99.90;;;;;;5140636;27;20066;-78
2023/07/24 08:36:44;;;;;;;15.52;7.97;;;19.90;99.90;;;;;;5152102;27;20027;-78
2023/07/24 08:39:09;;;;;;;15.30;9.65;;;20.00;99.90;;;;;;5144363;27;20045;-78
2023/07/24 08:41:37;;;;;;;14.40;9.65;;;20.00;99.90;;;;;;5144678;27;20541;-78
2023/07/24 08:44:09;;;;;;;20.85;11.20;;;20.00;99.90;;;;;;5143437;27;20067;-78
2023/07/24 08:46:41;;;;;;;20.48;9.32;;;19.90;99.90;;;;;;5152698;27;20035;-78
2023/07/24 08:49:11;;;;;;;16.30;9.13;;;19.80;99.90;;;;;;5149318;27;20088;-78
2023/07/24 08:51:37;;;;;;;15.00;8.65;;;19.90;99.90;;;;;;5145029;27;20083;-78
2023/07/24 08:54:04;;;;;;;15.93;9.05;;;19.70;99.90;;;;;;5123639;27;20046;-78
2023/07/24 08:56:30;;;;;;;14.75;8.65;;;19.70;99.90;;;;;;5128873;27;20078;-78
2023/07/24 08:58:55;;;;;;;13.32;8.90;;;19.80;99.90;;;;;;5145598;27;20073;-78
2023/07/24 09:01:21;;;;;;;16.80;9.00;;;20.00;99.90;;;;;;5146029;27;20036;-78
2023/07/24 09:03:46;;;;;;;16.10;9.10;;;20.40;99.90;;;;;;5141711;27;20030;-78
2023/07/24 09:06:12;;;;;;;17.15;9.40;;;20.70;99.90;;;;;;5144302;27;20031;-78
2023/07/24 09:08:39;;;;;;;25.13;10.27;;;20.80;99.90;;;;;;5144088;27;20068;-78
2023/07/24 09:11:06;;;;;;;14.95;9.05;;;20.70;99.90;;;;;;5145600;27;20034;-78
2023/07/24 09:13:32;;;;;;;17.02;9.45;;;20.50;99.90;;;;;;5142930;27;20042;-78
2023/07/24 09:15:59;;;;;;;17.67;9.50;;;20.40;99.90;;;;;;5145593;27;20392;-79
2023/07/24 09:18:25;;;;;;;20.92;9.23;;;20.30;99.90;;;;;;5152211;27;20079;-78
2023/07/24 09:20:51;;;;;;;15.48;9.55;;;20.40;99.90;;;;;;5147956;27;20567;-78
2023/07/24 09:23:30;;;;;;;19.27;9.73;;;20.50;99.90;;;;;;5151225;27;20031;-79
2023/07/24 09:25:56;;;;;;;14.38;8.98;;;20.70;99.90;;;;;;5152161;27;20041;-77
2023/07/24 09:28:22;;;;;;;16.35;8.60;;;20.80;99.90;;;;;;5143840;27;20366;-77
2023/07/24 09:30:53;;;;;;;16.05;8.93;;;20.90;99.90;;;;;;5131223;27;20437;-78
2023/07/24 09:33:19;;;;;;;14.35;8.48;;;20.90;99.90;;;;;;5146574;27;20070;-78
2023/07/24 09:35:44;;;;;;;14.95;7.93;;;20.90;99.90;;;;;;5144658;27;20468;-78
2023/07/24 09:38:11;;;;;;;13.48;8.05;;;20.80;99.90;;;;;;5136725;27;20031;-78
2023/07/24 09:40:45;;;;;;;11.10;7.60;;;21.00;99.90;;;;;;5146510;27;20117;-78
2023/07/24 09:43:27;;;;;;;;;;;21.30;99.90;;;;;;5149094;27;20043;-78
2023/07/24 09:45:53;;;;;;;13.77;7.65;;;21.60;99.90;;;;;;5136366;27;19915;-78
2023/07/24 09:48:20;;;;;;;13.38;7.93;;;21.80;99.90;;;;;;5135100;27;20382;-78
2023/07/24 09:50:47;;;;;;;14.60;7.82;;;22.00;99.90;;;;;;5141533;27;20126;-76
2023/07/24 09:53:22;;;;;;;16.77;7.95;;;22.20;99.90;;;;;;5141478;27;20045;-77
2023/07/24 09:55:58;;;;;;;11.90;8.63;;;22.20;99.90;;;;;;5145510;27;20030;-77
2023/07/24 09:58:25;;;;;;;13.55;8.95;;;22.10;99.90;;;;;;5146788;27;20420;-77
2023/07/24 10:00:52;;;;;;;14.95;8.88;;;22.20;99.90;;;;;;5138564;27;20074;-78
2023/07/24 10:03:20;;;;;;;15.50;9.10;;;22.30;99.90;;;;;;5147328;27;20038;-77
2023/07/24 10:05:46;;;;;;;13.18;7.80;;;22.50;99.90;;;;;;5134146;27;20031;-77
2023/07/24 10:08:12;;;;;;;13.40;8.07;;;22.60;99.90;;;;;;5124036;27;20035;-77
2023/07/24 10:10:41;;;;;;;16.10;8.75;;;22.80;99.90;;;;;;5138273;27;20031;-78
2023/07/24 10:13:10;;;;;;;11.77;7.68;;;22.90;99.90;;;;;;5128767;27;20041;-77
2023/07/24 10:15:37;;;;;;;16.75;7.78;;;23.00;99.90;;;;;;5133767;27;20038;-77
2023/07/24 10:18:05;;;;;;;13.02;8.18;;;23.10;99.90;;;;;;5136244;27;20545;-78
2023/07/24 10:20:36;;;;;;;12.05;8.00;;;23.00;99.90;;;;;;5132914;27;20162;-77
2023/07/24 10:23:03;;;;;;;11.60;7.50;;;23.00;99.90;;;;;;5137686;27;20066;-76
2023/07/24 10:25:33;;;;;;;9.93;7.10;;;22.90;99.90;;;;;;5131961;27;20035;-77
2023/07/24 10:28:06;;;;;;;10.98;7.47;;;22.70;99.90;;;;;;5136984;27;20030;-77
2023/07/24 10:30:32;;;;;;;13.32;6.72;;;22.60;99.90;;;;;;5131958;27;20087;-77
2023/07/24 10:33:11;;;;;;;11.85;6.00;;;22.70;99.90;;;;;;5137013;27;20034;-77
2023/07/24 10:35:45;;;;;;;10.30;5.85;;;22.70;99.90;;;;;;5136050;27;20149;-77
2023/07/24 10:38:13;;;;;;;10.25;6.75;;;23.00;99.90;;;;;;5136853;27;20378;-76
2023/07/24 10:40:44;;;;;;;15.57;7.80;;;23.10;99.90;;;;;;5125971;27;20031;-77
2023/07/24 10:43:12;;;;;;;13.48;6.82;;;23.30;99.90;;;;;;5136584;27;20086;-77
2023/07/24 10:45:51;;;;;;;11.98;6.70;;;23.30;99.90;;;;;;5141090;27;20046;-77
2023/07/24 10:48:25;;;;;;;10.05;6.78;;;23.30;99.90;;;;;;5131726;27;20046;-76
2023/07/24 10:50:51;;;;;;;9.13;5.78;;;23.20;99.90;;;;;;5137674;27;20039;-75
2023/07/24 10:53:20;;;;;;;8.77;6.30;;;23.00;99.90;;;;;;5136088;27;20393;-76
2023/07/24 10:55:47;;;;;;;10.15;5.57;;;22.90;99.90;;;;;;5137599;27;20084;-76
2023/07/24 10:58:14;;;;;;;11.13;5.40;;;22.70;99.90;;;;;;5144539;27;20031;-77
2023/07/24 11:00:44;;;;;;;10.55;5.97;;;22.70;99.90;;;;;;5144258;27;20043;-76
2023/07/24 11:03:10;;;;;;;10.00;5.82;;;22.80;99.90;;;;;;5133734;27;20050;-76
2023/07/24 11:05:40;;;;;;;7.88;5.55;;;23.00;99.90;;;;;;5118899;27;20035;-76
2023/07/24 11:08:15;;;;;;;10.45;6.07;;;23.40;99.90;;;;;;5133439;27;20035;-76
2023/07/24 11:10:55;;;;;;;8.10;5.25;;;23.60;99.90;;;;;;5139800;27;20483;-75
2023/07/24 11:13:23;;;;;;;8.20;4.80;;;23.90;99.90;;;;;;5137259;27;20125;-76
2023/07/24 11:15:49;;;;;;;7.47;5.43;;;24.20;99.90;;;;;;5143985;27;20039;-75
2023/07/24 11:18:15;;;;;;;8.25;5.10;;;23.70;99.90;;;;;;5140201;27;20039;-74
2023/07/24 11:20:46;;;;;;;7.13;5.15;;;22.90;99.90;;;;;;5137840;27;20438;-73
2023/07/24 11:23:12;;;;;;;12.30;5.85;;;22.60;99.90;;;;;;5138372;27;21771;-75
2023/07/24 11:25:38;;;;;;;9.82;5.70;;;22.30;99.90;;;;;;5141465;27;20046;-75
2023/07/24 11:28:08;;;;;;;8.05;5.60;;;22.10;99.90;;;;;;5138534;27;20553;-75
2023/07/24 11:30:34;;;;;;;15.32;7.28;;;22.00;99.90;;;;;;5142896;27;20034;-74
2023/07/24 11:33:02;;;;;;;13.32;7.50;;;22.10;99.90;;;;;;5150463;27;20074;-75
2023/07/24 11:35:29;;;;;;;9.75;6.03;;;22.00;99.90;;;;;;5147812;27;20054;-76
2023/07/24 11:37:54;;;;;;;10.15;6.50;;;21.80;99.90;;;;;;5148557;27;20043;-74
2023/07/24 11:40:20;;;;;;;11.02;6.15;;;21.90;99.90;;;;;;5150526;27;20047;-73
2023/07/24 11:42:47;;;;;;;8.55;6.03;;;21.80;99.90;;;;;;5152723;27;20045;-75
2023/07/24 11:45:14;;;;;;;9.50;6.50;;;21.90;99.90;;;;;;5148075;27;20083;-74
2023/07/24 11:47:47;;;;;;;10.18;6.18;;;21.90;99.90;;;;;;5143863;27;20043;-74
2023/07/24 11:50:13;;;;;;;9.90;6.40;;;22.20;99.90;;;;;;5164523;27;20039;-75
2023/07/24 11:52:45;;;;;;;10.63;6.22;;;22.40;99.90;;;;;;5136017;27;20037;-74
2023/07/24 11:55:31;;;;;;;9.10;6.43;;;22.50;99.90;;;;;;5121073;27;20111;-74
2023/07/24 11:58:03;;;;;;;6.95;5.15;;;22.80;99.90;;;;;;5143020;27;20117;-75
2023/07/24 12:00:32;;;;;;;8.85;6.18;;;23.10;99.90;;;;;;5142976;27;20031;-75
2023/07/24 12:03:03;;;;;;;9.07;6.28;;;23.20;99.90;;;;;;5142852;27;20042;-75
2023/07/24 12:05:29;;;;;;;8.85;5.97;;;23.10;99.90;;;;;;5149451;27;20134;-75
2023/07/24 12:07:55;;;;;;;9.68;5.57;;;22.90;99.90;;;;;;5144936;27;20121;-74
2023/07/24 12:10:27;;;;;;;9.15;5.75;;;22.70;99.90;;;;;;5153470;27;20443;-75
2023/07/24 12:12:54;;;;;;;9.73;5.80;;;22.60;99.90;;;;;;5144315;27;20069;-72
2023/07/24 12:15:20;;;;;;;8.43;4.97;;;22.40;99.90;;;;;;5122407;27;20894;-73
2023/07/24 12:17:45;;;;;;;8.70;5.32;;;22.20;99.90;;;;;;5142110;27;20109;-74
2023/07/24 12:20:11;;;;;;;7.53;5.80;;;22.00;99.90;;;;;;5135225;27;20343;-75
2023/07/24 12:22:38;;;;;;;7.78;5.68;;;22.00;99.90;;;;;;5133352;27;20137;-75
2023/07/24 12:25:05;;;;;;;7.03;5.72;;;22.00;99.90;;;;;;5144610;27;20045;-75
2023/07/24 12:27:32;;;;;;;8.25;5.40;;;21.90;99.90;;;;;;5142399;27;20050;-75
2023/07/24 12:29:58;;;;;;;9.90;6.20;;;21.70;99.90;;;;;;5139975;27;20080;-75
2023/07/24 12:32:24;;;;;;;8.25;6.10;;;21.30;99.90;;;;;;5134273;27;20074;-76
2023/07/24 12:34:51;;;;;;;11.13;6.25;;;21.20;99.90;;;;;;5137853;27;20042;-75